Time;durP1;ratioP1;P1;durP2;ratioP2;P2;SDS_P1;SDS_P2;PMS_P1;PMS_P2;Temp;Humidity;BMP_temperature;BMP_pressure;BME280_temperature;BME280_humidity;BME280_pressure;Samples;Min_cycle;Max_cycle;Signal;HPM_P1;HPM_P2
2021/12/09 00:01:21;;;;;;;;;;;;;;;;;;5047298;28;20329;-72
2021/12/09 00:03:46;;;;;;;;;;;;;;;;;;5062910;28;19975;-67
2021/12/09 00:06:12;;;;;;;;;;;;;;;;;;5046690;28;19939;-68
2021/12/09 00:08:38;;;;;;;;;;;;;;;;;;5047469;28;20003;-67
2021/12/09 00:11:03;;;;;;;;;;;;;;;;;;5041382;28;19916;-67
2021/12/09 00:13:28;;;;;;;;;;;;;;;;;;5047212;28;20255;-65
2021/12/09 00:15:53;;;;;;;;;;;;;;;;;;5047465;28;20161;-67
2021/12/09 00:18:19;;;;;;;;;;;;;;;;;;5047348;28;20377;-74
2021/12/09 00:20:44;;;;;;;;;;;;;;;;;;5047177;28;20366;-68
2021/12/09 00:23:09;;;;;;;;;;;;;;;;;;5046488;28;20282;-66
2021/12/09 00:25:34;;;;;;;;;;;;;;;;;;5045971;28;20270;-66
2021/12/09 00:28:00;;;;;;;;;;;;;;;;;;5047685;28;19923;-70
2021/12/09 00:30:25;;;;;;;;;;;;;;;;;;5044875;28;20376;-70
2021/12/09 00:32:50;;;;;;;;;;;;;;;;;;5047253;28;19921;-66
2021/12/09 00:35:17;;;;;;;;;;;;;;;;;;5046538;28;20273;-65
2021/12/09 00:37:57;;;;;;;;;;;;;;;;;;5046578;28;20005;-68
2021/12/09 00:40:22;;;;;;;;;;;;;;;;;;5062067;28;19920;-65
2021/12/09 00:42:47;;;;;;;;;;;;;;;;;;5046906;28;19920;-71
2021/12/09 00:45:13;;;;;;;;;;;;;;;;;;5046524;28;19921;-65
2021/12/09 00:47:38;;;;;;;;;;;;;;;;;;5045703;28;19912;-65
2021/12/09 00:50:03;;;;;;;;;;;;;;;;;;5045873;28;20613;-68
2021/12/09 00:52:28;;;;;;;;;;;;;;;;;;5045636;28;19995;-67
2021/12/09 00:54:54;;;;;;;;;;;;;;;;;;5044515;28;20389;-66
2021/12/09 00:57:19;;;;;;;;;;;;;;;;;;5046348;28;20374;-65
2021/12/09 00:59:44;;;;;;;;;;;;;;;;;;5061902;28;20392;-70
2021/12/09 01:02:10;;;;;;;;;;;;;;;;;;5040068;28;20345;-69
2021/12/09 01:04:35;;;;;;;;;;;;;;;;;;5043349;28;20269;-68
2021/12/09 01:07:00;;;;;;;;;;;;;;;;;;5043743;28;19928;-69
2021/12/09 01:09:25;;;;;;;;;;;;;;;;;;5043759;28;19921;-70
2021/12/09 01:11:51;;;;;;;;;;;;;;;;;;5044654;28;19913;-65
2021/12/09 01:14:16;;;;;;;;;;;;;;;;;;5059183;28;19917;-68
2021/12/09 01:16:41;;;;;;;;;;;;;;;;;;5047833;28;19956;-70
2021/12/09 01:19:06;;;;;;;;;;;;;;;;;;5045853;28;20016;-69
2021/12/09 01:21:32;;;;;;;;;;;;;;;;;;5044465;28;19917;-71
2021/12/09 01:23:57;;;;;;;;;;;;;;;;;;5045584;28;19927;-72
2021/12/09 01:26:24;;;;;;;;;;;;;;;;;;5045332;28;19924;-67
2021/12/09 01:28:55;;;;;;;;;;;;;;;;;;5046058;28;20378;-70
2021/12/09 01:31:27;;;;;;;;;;;;;;;;;;5044639;28;19962;-64
2021/12/09 01:33:54;;;;;;;;;;;;;;;;;;5056067;28;19923;-66
2021/12/09 01:36:19;;;;;;;;;;;;;;;;;;5041413;28;19921;-66
2021/12/09 01:38:44;;;;;;;;;;;;;;;;;;5050866;28;19920;-69
2021/12/09 01:41:10;;;;;;;;;;;;;;;;;;5050607;28;19913;-70
2021/12/09 01:43:35;;;;;;;;;;;;;;;;;;5050277;28;20345;-68
2021/12/09 01:46:00;;;;;;;;;;;;;;;;;;5049662;28;19913;-67
2021/12/09 01:48:25;;;;;;;;;;;;;;;;;;5049511;28;19928;-68
2021/12/09 01:50:50;;;;;;;;;;;;;;;;;;5049657;28;19929;-70
2021/12/09 01:53:16;;;;;;;;;;;;;;;;;;5043729;28;19919;-66
2021/12/09 01:55:41;;;;;;;;;;;;;;;;;;5041873;28;19923;-70
2021/12/09 01:58:06;;;;;;;;;;;;;;;;;;5060434;28;19924;-70
2021/12/09 02:00:32;;;;;;;;;;;;;;;;;;5059797;28;19966;-71
2021/12/09 02:02:57;;;;;;;;;;;;;;;;;;5062780;28;19917;-68
2021/12/09 02:05:22;;;;;;;;;;;;;;;;;;5044072;28;20188;-67
2021/12/09 02:07:47;;;;;;;;;;;;;;;;;;5047935;28;19974;-72
2021/12/09 02:10:13;;;;;;;;;;;;;;;;;;5047585;28;19917;-68
2021/12/09 02:12:38;;;;;;;;;;;;;;;;;;5050887;28;19998;-69
2021/12/09 02:15:03;;;;;;;;;;;;;;;;;;5061103;28;19959;-70
2021/12/09 02:17:28;;;;;;;;;;;;;;;;;;5047101;28;19963;-67
2021/12/09 02:19:53;;;;;;;;;;;;;;;;;;5048582;28;20285;-67
2021/12/09 02:22:19;;;;;;;;;;;;;;;;;;5047913;28;19913;-70
2021/12/09 02:24:44;;;;;;;;;;;;;;;;;;5061675;28;19921;-69
2021/12/09 02:27:09;;;;;;;;;;;;;;;;;;5047453;28;19919;-70
2021/12/09 02:29:36;;;;;;;;;;;;;;;;;;5043053;28;20313;-65
2021/12/09 02:32:02;;;;;;;;;;;;;;;;;;5047577;28;20003;-70
2021/12/09 02:34:27;;;;;;;;;;;;;;;;;;5047658;28;19974;-68
2021/12/09 02:36:52;;;;;;;;;;;;;;;;;;5047777;28;19928;-68
2021/12/09 02:39:17;;;;;;;;;;;;;;;;;;5047926;28;19920;-71
2021/12/09 02:41:43;;;;;;;;;;;;;;;;;;5048358;28;20285;-67
2021/12/09 02:44:08;;;;;;;;;;;;;;;;;;5061807;28;20508;-66
2021/12/09 02:46:36;;;;;;;;;;;;;;;;;;5047057;28;19913;-64
2021/12/09 02:49:01;;;;;;;;;;;;;;;;;;5047396;28;19921;-66
2021/12/09 02:51:26;;;;;;;;;;;;;;;;;;5047363;28;20436;-69
2021/12/09 02:53:51;;;;;;;;;;;;;;;;;;5046995;28;19955;-66
2021/12/09 02:56:17;;;;;;;;;;;;;;;;;;5048200;28;20354;-69
2021/12/09 02:58:42;;;;;;;;;;;;;;;;;;5045527;28;20424;-66
2021/12/09 03:01:12;;;;;;;;;;;;;;;;;;5047336;28;19913;-70
2021/12/09 03:03:37;;;;;;;;;;;;;;;;;;5047395;28;19917;-70
2021/12/09 03:06:02;;;;;;;;;;;;;;;;;;5046882;28;19923;-70
2021/12/09 03:08:35;;;;;;;;;;;;;;;;;;5060702;28;20078;-71
2021/12/09 03:11:00;;;;;;;;;;;;;;;;;;5046321;28;19917;-72
2021/12/09 03:13:26;;;;;;;;;;;;;;;;;;5046967;28;19940;-66
2021/12/09 03:15:51;;;;;;;;;;;;;;;;;;5049227;28;19924;-70
2021/12/09 03:18:17;;;;;;;;;;;;;;;;;;5045316;28;20319;-68
2021/12/09 03:20:42;;;;;;;;;;;;;;;;;;5060614;28;19968;-74
2021/12/09 03:23:07;;;;;;;;;;;;;;;;;;5043925;28;20286;-68
2021/12/09 03:25:33;;;;;;;;;;;;;;;;;;5045311;28;20345;-70
2021/12/09 03:27:58;;;;;;;;;;;;;;;;;;5060409;28;20019;-67
2021/12/09 03:30:24;;;;;;;;;;;;;;;;;;5047008;28;19917;-67
2021/12/09 03:32:49;;;;;;;;;;;;;;;;;;5045128;28;20029;-70
2021/12/09 03:35:15;;;;;;;;;;;;;;;;;;5046056;28;20306;-73
2021/12/09 03:37:40;;;;;;;;;;;;;;;;;;5061069;28;19917;-68
2021/12/09 03:40:06;;;;;;;;;;;;;;;;;;5044394;28;20058;-70
2021/12/09 03:42:31;;;;;;;;;;;;;;;;;;5046774;28;19924;-68
2021/12/09 03:44:56;;;;;;;;;;;;;;;;;;5041119;28;19917;-67
2021/12/09 03:47:21;;;;;;;;;;;;;;;;;;5045827;28;19917;-69
2021/12/09 03:49:47;;;;;;;;;;;;;;;;;;5045534;28;20332;-66
2021/12/09 03:52:12;;;;;;;;;;;;;;;;;;5045239;28;19986;-67
2021/12/09 03:54:37;;;;;;;;;;;;;;;;;;5060271;28;20356;-71
2021/12/09 03:57:02;;;;;;;;;;;;;;;;;;5043275;28;19967;-69
2021/12/09 03:59:28;;;;;;;;;;;;;;;;;;5049353;28;19928;-68
2021/12/09 04:01:54;;;;;;;;;;;;;;;;;;5044702;28;20569;-69
2021/12/09 04:04:19;;;;;;;;;;;;;;;;;;5046245;28;19955;-69
2021/12/09 04:06:45;;;;;;;;;;;;;;;;;;5045991;28;19948;-66
2021/12/09 04:09:10;;;;;;;;;;;;;;;;;;5045059;28;20281;-69
2021/12/09 04:11:35;;;;;;;;;;;;;;;;;;5045130;28;19916;-74
2021/12/09 04:14:00;;;;;;;;;;;;;;;;;;5044910;28;19924;-66
2021/12/09 04:16:26;;;;;;;;;;;;;;;;;;5044612;28;19924;-67
2021/12/09 04:18:51;;;;;;;;;;;;;;;;;;5045515;28;19925;-70
2021/12/09 04:21:16;;;;;;;;;;;;;;;;;;5029234;28;19942;-67
2021/12/09 04:23:41;;;;;;;;;;;;;;;;;;5059914;28;19925;-67
2021/12/09 04:26:07;;;;;;;;;;;;;;;;;;5044287;28;20131;-67
2021/12/09 04:28:32;;;;;;;;;;;;;;;;;;5043083;28;19917;-69
2021/12/09 04:30:57;;;;;;;;;;;;;;;;;;5044675;28;19919;-66
2021/12/09 04:33:22;;;;;;;;;;;;;;;;;;5044814;28;19978;-66
2021/12/09 04:35:47;;;;;;;;;;;;;;;;;;5044685;28;19932;-70
2021/12/09 04:38:13;;;;;;;;;;;;;;;;;;5045318;28;20440;-74
2021/12/09 04:40:38;;;;;;;;;;;;;;;;;;5044655;28;19924;-70
2021/12/09 04:43:03;;;;;;;;;;;;;;;;;;5045300;28;20341;-67
2021/12/09 04:45:28;;;;;;;;;;;;;;;;;;5044335;28;19943;-70
2021/12/09 04:47:54;;;;;;;;;;;;;;;;;;5048001;28;20350;-68
2021/12/09 04:50:19;;;;;;;;;;;;;;;;;;5044777;28;19917;-71
2021/12/09 04:52:44;;;;;;;;;;;;;;;;;;5045757;28;20011;-65
2021/12/09 04:55:09;;;;;;;;;;;;;;;;;;5045640;28;19956;-70
2021/12/09 04:57:34;;;;;;;;;;;;;;;;;;5045157;28;19916;-68
2021/12/09 05:00:00;;;;;;;;;;;;;;;;;;5043662;28;20317;-67
2021/12/09 05:02:34;;;;;;;;;;;;;;;;;;5044188;28;19917;-70
2021/12/09 05:04:59;;;;;;;;;;;;;;;;;;5033728;28;19917;-69
2021/12/09 05:07:24;;;;;;;;;;;;;;;;;;5043677;28;19917;-68
2021/12/09 05:09:51;;;;;;;;;;;;;;;;;;5045112;28;19924;-66
2021/12/09 05:12:16;;;;;;;;;;;;;;;;;;5044391;28;19971;-71
2021/12/09 05:14:44;;;;;;;;;;;;;;;;;;5044685;28;19920;-70
2021/12/09 05:17:09;;;;;;;;;;;;;;;;;;5042260;28;19921;-71
2021/12/09 05:19:35;;;;;;;;;;;;;;;;;;5058995;28;19966;-67
2021/12/09 05:22:00;;;;;;;;;;;;;;;;;;5042612;28;19917;-65
2021/12/09 05:24:27;;;;;;;;;;;;;;;;;;5055069;28;20201;-67
2021/12/09 05:26:55;;;;;;;;;;;;;;;;;;5064371;28;20034;-70
2021/12/09 05:29:21;;;;;;;;;;;;;;;;;;5053383;28;19932;-68
2021/12/09 05:34:31;;;;;;;;;;;;;;;;;;4998333;28;19929;-64
2021/12/09 05:36:56;;;;;;;;;;;;;;;;;;4874731;29;20013;-65
2021/12/09 05:39:21;;;;;;;;;;;;;;;;;;4895081;29;20309;-69
2021/12/09 05:41:46;;;;;;;;;;;;;;;;;;4894875;29;19920;-70
2021/12/09 05:44:12;;;;;;;;;;;;;;;;;;4893095;29;19919;-71
2021/12/09 05:46:37;;;;;;;;;;;;;;;;;;4896580;29;20424;-68
2021/12/09 05:49:02;;;;;;;;;;;;;;;;;;4896655;29;20441;-67
2021/12/09 05:51:27;;;;;;;;;;;;;;;;;;4895540;29;19945;-70
2021/12/09 05:53:52;;;;;;;;;;;;;;;;;;4895276;29;19954;-66
2021/12/09 05:56:18;;;;;;;;;;;;;;;;;;4895229;29;20006;-66
2021/12/09 05:58:43;;;;;;;;;;;;;;;;;;4895067;29;20400;-64
2021/12/09 06:01:08;;;;;;;;;;;;;;;;;;4894374;29;19923;-67
2021/12/09 06:03:33;;;;;;;;;;;;;;;;;;4896594;29;19971;-73
2021/12/09 06:05:59;;;;;;;;;;;;;;;;;;4893139;29;19986;-66
2021/12/09 06:08:24;;;;;;;;;;;;;;;;;;4892953;29;20337;-70
2021/12/09 06:10:49;;;;;;;;;;;;;;;;;;4883699;29;19982;-65
2021/12/09 06:13:16;;;;;;;;;;;;;;;;;;4887064;29;20014;-67
2021/12/09 06:15:41;;;;;;;;;;;;;;;;;;4893787;29;19920;-67
2021/12/09 06:18:06;;;;;;;;;;;;;;;;;;4893090;29;20033;-70
2021/12/09 06:20:31;;;;;;;;;;;;;;;;;;4900213;29;19923;-65
2021/12/09 06:22:56;;;;;;;;;;;;;;;;;;4900023;29;19920;-66
2021/12/09 06:25:22;;;;;;;;;;;;;;;;;;4898092;29;20062;-67
2021/12/09 06:27:48;;;;;;;;;;;;;;;;;;4897017;29;20462;-69
2021/12/09 06:30:14;;;;;;;;;;;;;;;;;;4896233;29;19994;-69
2021/12/09 06:32:39;;;;;;;;;;;;;;;;;;4897549;29;19926;-67
2021/12/09 06:35:05;;;;;;;;;;;;;;;;;;4899022;29;19923;-71
2021/12/09 06:37:30;;;;;;;;;;;;;;;;;;4924925;28;19926;-69
2021/12/09 06:39:56;;;;;;;;;;;;;;;;;;4955747;28;19918;-68
2021/12/09 06:42:21;;;;;;;;;;;;;;;;;;4959756;28;19918;-70
2021/12/09 06:44:46;;;;;;;;;;;;;;;;;;4957483;28;19996;-72
2021/12/09 06:47:11;;;;;;;;;;;;;;;;;;4957200;28;19982;-67
2021/12/09 06:49:37;;;;;;;;;;;;;;;;;;4945622;28;19918;-67
2021/12/09 06:52:02;;;;;;;;;;;;;;;;;;4954617;28;19923;-68
2021/12/09 06:54:27;;;;;;;;;;;;;;;;;;4953658;28;19918;-65
2021/12/09 06:56:52;;;;;;;;;;;;;;;;;;4953343;28;19959;-69
2021/12/09 06:59:17;;;;;;;;;;;;;;;;;;4952631;28;20385;-62
2021/12/09 07:01:43;;;;;;;;;;;;;;;;;;4954085;28;19925;-67
2021/12/09 07:04:08;;;;;;;;;;;;;;;;;;4951458;28;19921;-68
2021/12/09 07:06:34;;;;;;;;;;;;;;;;;;4956058;28;19997;-71
2021/12/09 07:09:01;;;;;;;;;;;;;;;;;;4957435;28;19961;-73
2021/12/09 07:11:26;;;;;;;;;;;;;;;;;;4942292;28;19918;-66
2021/12/09 07:13:51;;;;;;;;;;;;;;;;;;4960378;28;19918;-68
2021/12/09 07:16:16;;;;;;;;;;;;;;;;;;4958372;28;19914;-64
2021/12/09 07:18:42;;;;;;;;;;;;;;;;;;4962460;28;19926;-68
2021/12/09 07:21:07;;;;;;;;;;;;;;;;;;4959151;28;19925;-68
2021/12/09 07:23:33;;;;;;;;;;;;;;;;;;4959405;28;19922;-68
2021/12/09 07:25:58;;;;;;;;;;;;;;;;;;4961818;28;19921;-73
2021/12/09 07:28:23;;;;;;;;;;;;;;;;;;4956270;28;19918;-75
2021/12/09 07:30:48;;;;;;;;;;;;;;;;;;4959158;28;19914;-65
2021/12/09 07:33:13;;;;;;;;;;;;;;;;;;4961070;28;19918;-65
2021/12/09 07:35:40;;;;;;;;;;;;;;;;;;4966472;28;19965;-71
2021/12/09 07:38:05;;;;;;;;;;;;;;;;;;4973732;28;19937;-71
2021/12/09 07:40:31;;;;;;;;;;;;;;;;;;4978164;28;19974;-63
2021/12/09 07:42:56;;;;;;;;;;;;;;;;;;4982712;28;19918;-67
2021/12/09 07:45:21;;;;;;;;;;;;;;;;;;4979959;28;19914;-69
2021/12/09 07:47:46;;;;;;;;;;;;;;;;;;4984845;28;19918;-63
2021/12/09 07:50:13;;;;;;;;;;;;;;;;;;4982992;28;19922;-66
2021/12/09 07:52:39;;;;;;;;;;;;;;;;;;4976602;28;20397;-66
2021/12/09 07:55:04;;;;;;;;;;;;;;;;;;4965428;28;19917;-70
2021/12/09 07:57:31;;;;;;;;;;;;;;;;;;4985039;28;20283;-66
2021/12/09 07:59:56;;;;;;;;;;;;;;;;;;4983819;28;19973;-70
2021/12/09 08:02:21;;;;;;;;;;;;;;;;;;4985993;28;19979;-66
2021/12/09 08:04:46;;;;;;;;;;;;;;;;;;4979645;28;19951;-65
2021/12/09 08:07:11;;;;;;;;;;;;;;;;;;4985419;28;20307;-68
2021/12/09 08:09:37;;;;;;;;;;;;;;;;;;4969014;28;19924;-64
2021/12/09 08:12:02;;;;;;;;;;;;;;;;;;4963814;28;19918;-64
2021/12/09 08:14:27;;;;;;;;;;;;;;;;;;4981435;28;20406;-68
2021/12/09 08:17:07;;;;;;;;;;;;;;;;;;4964021;28;19926;-69
2021/12/09 08:19:32;;;;;;;;;;;;;;;;;;4978917;28;20612;-70
2021/12/09 08:21:57;;;;;;;;;;;;;;;;;;4965941;28;19918;-68
2021/12/09 08:24:22;;;;;;;;;;;;;;;;;;4979672;28;19922;-71
2021/12/09 08:26:47;;;;;;;;;;;;;;;;;;4981736;28;19917;-69
2021/12/09 08:29:13;;;;;;;;;;;;;;;;;;4979980;28;19918;-70
2021/12/09 08:31:38;;;;;;;;;;;;;;;;;;4978812;28;19961;-65
2021/12/09 08:34:03;;;;;;;;;;;;;;;;;;4978185;28;20223;-67
2021/12/09 08:36:28;;;;;;;;;;;;;;;;;;4999753;28;19928;-67
2021/12/09 08:38:53;;;;;;;;;;;;;;;;;;4995798;28;19971;-71
2021/12/09 08:41:19;;;;;;;;;;;;;;;;;;5006893;28;19924;-69
2021/12/09 08:43:44;;;;;;;;;;;;;;;;;;5009433;28;19918;-69
2021/12/09 08:46:10;;;;;;;;;;;;;;;;;;5007739;28;19921;-68
2021/12/09 08:48:35;;;;;;;;;;;;;;;;;;5010506;28;20350;-72
2021/12/09 08:51:00;;;;;;;;;;;;;;;;;;5005824;28;19932;-67
2021/12/09 08:53:25;;;;;;;;;;;;;;;;;;5005186;28;20355;-66
2021/12/09 08:55:50;;;;;;;;;;;;;;;;;;5008598;28;20267;-64
2021/12/09 08:58:16;;;;;;;;;;;;;;;;;;5008108;28;20370;-67
2021/12/09 09:00:41;;;;;;;;;;;;;;;;;;5009408;28;19926;-71
2021/12/09 09:03:06;;;;;;;;;;;;;;;;;;5005481;28;19971;-66
2021/12/09 09:05:32;;;;;;;;;;;;;;;;;;5006576;28;19983;-66
2021/12/09 09:07:57;;;;;;;;;;;;;;;;;;5006060;28;19924;-71
2021/12/09 09:10:23;;;;;;;;;;;;;;;;;;5005605;28;20381;-66
2021/12/09 09:12:48;;;;;;;;;;;;;;;;;;5006334;28;19917;-68
2021/12/09 09:15:13;;;;;;;;;;;;;;;;;;5005527;28;19921;-65
2021/12/09 09:17:38;;;;;;;;;;;;;;;;;;5009734;28;20221;-66
2021/12/09 09:20:03;;;;;;;;;;;;;;;;;;5009663;28;19921;-69
2021/12/09 09:22:29;;;;;;;;;;;;;;;;;;4988961;28;19964;-65
2021/12/09 09:24:54;;;;;;;;;;;;;;;;;;5007812;28;19959;-65
2021/12/09 09:27:19;;;;;;;;;;;;;;;;;;4987373;28;19967;-64
2021/12/09 09:29:44;;;;;;;;;;;;;;;;;;5009343;28;19917;-71
2021/12/09 09:32:13;;;;;;;;;;;;;;;;;;5006664;28;19941;-68
2021/12/09 09:34:38;;;;;;;;;;;;;;;;;;5012231;28;20004;-66
2021/12/09 09:37:04;;;;;;;;;;;;;;;;;;5024983;28;19974;-70
2021/12/09 09:39:31;;;;;;;;;;;;;;;;;;5024594;28;19917;-65
2021/12/09 09:42:01;;;;;;;;;;;;;;;;;;5041981;28;20141;-70
2021/12/09 09:44:33;;;;;;;;;;;;;;;;;;5040496;28;19932;-68
2021/12/09 09:46:58;;;;;;;;;;;;;;;;;;5041769;28;19923;-70
2021/12/09 09:49:23;;;;;;;;;;;;;;;;;;5043040;28;19912;-67
2021/12/09 09:51:48;;;;;;;;;;;;;;;;;;5041938;28;20006;-68
2021/12/09 09:54:14;;;;;;;;;;;;;;;;;;5019787;28;20396;-68
2021/12/09 09:56:42;;;;;;;;;;;;;;;;;;5044445;28;20393;-72
2021/12/09 09:59:07;;;;;;;;;;;;;;;;;;5046828;28;20277;-68
2021/12/09 10:01:32;;;;;;;;;;;;;;;;;;5047341;28;19960;-68
2021/12/09 10:04:09;;;;;;;;;;;;;;;;;;5047668;28;20224;-66
2021/12/09 10:06:34;;;;;;;;;;;;;;;;;;5047214;28;19916;-71
2021/12/09 10:09:00;;;;;;;;;;;;;;;;;;5046246;28;20469;-69
2021/12/09 10:11:25;;;;;;;;;;;;;;;;;;5047297;28;19916;-66
2021/12/09 10:13:50;;;;;;;;;;;;;;;;;;5047162;28;19920;-66
2021/12/09 10:16:15;;;;;;;;;;;;;;;;;;5045727;28;19962;-71
2021/12/09 10:18:42;;;;;;;;;;;;;;;;;;5049019;28;19921;-71
2021/12/09 10:21:07;;;;;;;;;;;;;;;;;;5044664;28;20387;-68
2021/12/09 10:23:32;;;;;;;;;;;;;;;;;;5035224;28;19923;-64
2021/12/09 10:25:57;;;;;;;;;;;;;;;;;;5046379;28;19960;-70
2021/12/09 10:28:23;;;;;;;;;;;;;;;;;;5047545;28;19921;-67
2021/12/09 10:30:48;;;;;;;;;;;;;;;;;;5046800;28;19924;-71
2021/12/09 10:33:21;;;;;;;;;;;;;;;;;;5047036;28;19917;-69
2021/12/09 10:35:47;;;;;;;;;;;;;;;;;;5028644;28;19986;-65
2021/12/09 10:38:12;;;;;;;;;;;;;;;;;;5029027;28;20107;-68
2021/12/09 10:40:37;;;;;;;;;;;;;;;;;;5026762;28;19994;-68
2021/12/09 10:43:03;;;;;;;;;;;;;;;;;;5026484;28;19921;-67
2021/12/09 10:45:28;;;;;;;;;;;;;;;;;;5025788;28;19980;-66
2021/12/09 10:47:57;;;;;;;;;;;;;;;;;;5026992;28;19925;-66
2021/12/09 10:50:32;;;;;;;;;;;;;;;;;;5024272;28;20290;-68
2021/12/09 10:53:00;;;;;;;;;;;;;;;;;;5000270;28;20396;-66
2021/12/09 10:55:26;;;;;;;;;;;;;;;;;;5040535;28;19917;-74
2021/12/09 10:57:51;;;;;;;;;;;;;;;;;;5032967;28;19962;-68
2021/12/09 11:00:16;;;;;;;;;;;;;;;;;;5026213;28;19929;-72
2021/12/09 11:02:41;;;;;;;;;;;;;;;;;;5019772;28;19913;-71
2021/12/09 11:05:06;;;;;;;;;;;;;;;;;;5019269;28;19928;-69
2021/12/09 11:07:32;;;;;;;;;;;;;;;;;;5023547;28;19948;-73
2021/12/09 11:09:57;;;;;;;;;;;;;;;;;;5023719;28;19917;-66
2021/12/09 11:12:22;;;;;;;;;;;;;;;;;;5038922;28;20054;-64
2021/12/09 11:14:50;;;;;;;;;;;;;;;;;;5025482;28;19917;-71
2021/12/09 11:17:17;;;;;;;;;;;;;;;;;;5024229;28;19941;-69
2021/12/09 11:19:47;;;;;;;;;;;;;;;;;;5025807;28;20302;-67
2021/12/09 11:22:18;;;;;;;;;;;;;;;;;;5021409;28;19970;-72
2021/12/09 11:24:47;;;;;;;;;;;;;;;;;;5025756;28;20012;-69
2021/12/09 11:27:13;;;;;;;;;;;;;;;;;;5039507;28;20301;-72
2021/12/09 11:29:41;;;;;;;;;;;;;;;;;;5039219;28;20438;-67
2021/12/09 11:32:11;;;;;;;;;;;;;;;;;;5024727;28;20420;-66
2021/12/09 11:34:38;;;;;;;;;;;;;;;;;;5025690;28;20374;-68
2021/12/09 11:37:09;;;;;;;;;;;;;;;;;;5022725;28;19932;-65
2021/12/09 11:39:36;;;;;;;;;;;;;;;;;;5019398;28;20430;-70
2021/12/09 11:42:05;;;;;;;;;;;;;;;;;;5024541;28;19978;-66
2021/12/09 11:44:31;;;;;;;;;;;;;;;;;;5021297;28;19936;-70
2021/12/09 11:46:56;;;;;;;;;;;;;;;;;;5022772;28;19917;-65
2021/12/09 11:49:21;;;;;;;;;;;;;;;;;;5021749;28;19917;-70
2021/12/09 11:51:46;;;;;;;;;;;;;;;;;;5024194;28;19963;-68
2021/12/09 11:54:11;;;;;;;;;;;;;;;;;;5023796;28;19917;-68
2021/12/09 11:56:55;;;;;;;;;;;;;;;;;;5024647;28;19960;-68
2021/12/09 12:07:32;;;;;;;;;;;;;;;;;;;;;
2021/12/09 12:15:02;;;;;;;;;;;;;;;;;;5024105;28;19917;-69
2021/12/09 12:17:39;;;;;;;;;;;;;;;;;;5022163;28;19944;-66
2021/12/09 12:25:31;;;;;;;;;;;;;;;;;;5020518;28;19917;-68
2021/12/09 12:28:05;;;;;;;;;;;;;;;;;;5023187;28;20027;-69
2021/12/09 12:30:48;;;;;;;;;;;;;;;;;;5023297;28;19925;-72
2021/12/09 12:33:24;;;;;;;;;;;;;;;;;;5022616;28;19921;-69
2021/12/09 12:36:02;;;;;;;;;;;;;;;;;;5022148;28;19924;-68
2021/12/09 12:40:57;;;;;;;;;;;;;;;;;;5022480;28;20387;-66
2021/12/09 12:43:23;;;;;;;;;;;;;;;;;;5024193;28;19921;-69
2021/12/09 12:48:20;;;;;;;;;;;;;;;;;;5023344;28;19921;-64
2021/12/09 12:50:45;;;;;;;;;;;;;;;;;;5022817;28;19928;-66
2021/12/09 12:53:11;;;;;;;;;;;;;;;;;;5022717;28;19937;-73
2021/12/09 12:55:42;;;;;;;;;;;;;;;;;;5028219;28;19972;-68
2021/12/09 12:58:07;;;;;;;;;;;;;;;;;;5023862;28;20027;-68
2021/12/09 13:00:32;;;;;;;;;;;;;;;;;;5022776;28;20524;-69
2021/12/09 13:03:09;;;;;;;;;;;;;;;;;;;;;
2021/12/09 13:05:51;;;;;;;;;;;;;;;;;;5017661;28;20382;-67
2021/12/09 13:08:42;;;;;;;;;;;;;;;;;;5026214;28;19916;-67
2021/12/09 13:15:53;;;;;;;;;;;;;;;;;;5026067;28;19955;-67
2021/12/09 13:18:19;;;;;;;;;;;;;;;;;;5025854;28;19924;-70
2021/12/09 13:20:44;;;;;;;;;;;;;;;;;;5026391;28;19921;-69
2021/12/09 13:23:10;;;;;;;;;;;;;;;;;;5026700;28;19999;-65
2021/12/09 13:25:35;;;;;;;;;;;;;;;;;;5023635;28;19920;-68
2021/12/09 13:46:23;;;;;;;;;;;;;;;;;;5026061;28;19917;-66
2021/12/09 13:48:51;;;;;;;;;;;;;;;;;;5024039;28;19918;-67
2021/12/09 13:51:21;;;;;;;;;;;;;;;;;;5022092;28;19924;-67
2021/12/09 13:56:38;;;;;;;;;;;;;;;;;;4994839;28;19940;-66
2021/12/09 13:59:03;;;;;;;;;;;;;;;;;;5012907;28;20362;-70
2021/12/09 14:01:29;;;;;;;;;;;;;;;;;;5019115;28;19927;-72
2021/12/09 14:03:54;;;;;;;;;;;;;;;;;;5020065;28;19971;-67
2021/12/09 14:06:19;;;;;;;;;;;;;;;;;;5022091;28;19917;-66
2021/12/09 14:08:51;;;;;;;;;;;;;;;;;;5020448;28;19960;-65
2021/12/09 14:11:31;;;;;;;;;;;;;;;;;;5022655;28;19917;-69
2021/12/09 14:14:06;;;;;;;;;;;;;;;;;;5018184;28;19921;-68
2021/12/09 14:19:58;;;;;;;;;;;;;;;;;;5022792;28;20358;-70
2021/12/09 14:21:48;;;;;;;;;;;;;;;;;;5036246;28;19917;-71
2021/12/09 14:24:15;;;;;;;;;;;;;;;;;;5036617;28;19913;-73
2021/12/09 14:26:40;;;;;;;;;;;;;;;;;;5020324;28;20297;-70
2021/12/09 14:29:05;;;;;;;;;;;;;;;;;;5023364;28;19924;-72
2021/12/09 14:31:30;;;;;;;;;;;;;;;;;;5023143;28;19913;-68
2021/12/09 14:34:00;;;;;;;;;;;;;;;;;;5037644;28;19924;-72
2021/12/09 14:36:26;;;;;;;;;;;;;;;;;;5021805;28;20015;-69
2021/12/09 14:38:51;;;;;;;;;;;;;;;;;;5021399;28;19928;-68
2021/12/09 14:41:17;;;;;;;;;;;;;;;;;;5025614;28;19921;-66
2021/12/09 14:43:45;;;;;;;;;;;;;;;;;;5040920;28;20563;-67
2021/12/09 14:46:11;;;;;;;;;;;;;;;;;;5026788;28;20420;-66
2021/12/09 14:48:37;;;;;;;;;;;;;;;;;;5039073;28;19960;-68
2021/12/09 14:51:02;;;;;;;;;;;;;;;;;;5025340;28;20023;-70
2021/12/09 14:53:27;;;;;;;;;;;;;;;;;;5025491;28;19964;-72
2021/12/09 14:55:52;;;;;;;;;;;;;;;;;;5026162;28;19956;-74
2021/12/09 14:58:17;;;;;;;;;;;;;;;;;;5025954;28;20038;-67
2021/12/09 15:00:43;;;;;;;;;;;;;;;;;;5025708;28;19921;-70
2021/12/09 15:03:08;;;;;;;;;;;;;;;;;;5027130;28;19917;-68
2021/12/09 15:05:34;;;;;;;;;;;;;;;;;;5025839;28;20562;-66
2021/12/09 15:08:03;;;;;;;;;;;;;;;;;;5023176;28;20408;-70
2021/12/09 15:10:30;;;;;;;;;;;;;;;;;;5024985;28;20090;-64
2021/12/09 15:12:55;;;;;;;;;;;;;;;;;;5024253;28;19932;-69
2021/12/09 15:15:20;;;;;;;;;;;;;;;;;;5025632;28;19913;-64
2021/12/09 15:17:45;;;;;;;;;;;;;;;;;;5025123;28;19921;-70
2021/12/09 15:20:10;;;;;;;;;;;;;;;;;;5023759;28;20318;-71
2021/12/09 15:22:36;;;;;;;;;;;;;;;;;;5023457;28;20405;-69
2021/12/09 15:25:01;;;;;;;;;;;;;;;;;;5039984;28;20338;-67
2021/12/09 15:27:26;;;;;;;;;;;;;;;;;;5041168;28;19975;-66
2021/12/09 15:29:51;;;;;;;;;;;;;;;;;;5023923;28;20058;-67
2021/12/09 15:32:17;;;;;;;;;;;;;;;;;;5023274;28;19917;-67
2021/12/09 15:34:44;;;;;;;;;;;;;;;;;;5024050;28;20213;-66
2021/12/09 15:37:12;;;;;;;;;;;;;;;;;;5037918;28;20168;-67
2021/12/09 15:39:38;;;;;;;;;;;;;;;;;;5024910;28;19921;-65
2021/12/09 15:42:03;;;;;;;;;;;;;;;;;;5022475;28;19931;-68
2021/12/09 15:44:28;;;;;;;;;;;;;;;;;;5024440;28;19921;-64
2021/12/09 15:46:54;;;;;;;;;;;;;;;;;;5027784;28;19936;-70
2021/12/09 15:49:20;;;;;;;;;;;;;;;;;;5025638;28;19917;-67
2021/12/09 15:51:45;;;;;;;;;;;;;;;;;;5023910;28;19952;-67
2021/12/09 15:54:10;;;;;;;;;;;;;;;;;;5024937;28;19960;-70
2021/12/09 15:56:35;;;;;;;;;;;;;;;;;;5022247;28;19960;-71
2021/12/09 15:59:00;;;;;;;;;;;;;;;;;;5024975;28;19972;-68
2021/12/09 16:01:26;;;;;;;;;;;;;;;;;;5024778;28;20004;-68
2021/12/09 16:03:51;;;;;;;;;;;;;;;;;;5021069;28;19972;-70
2021/12/09 16:06:16;;;;;;;;;;;;;;;;;;5024790;28;19916;-68
2021/12/09 16:08:42;;;;;;;;;;;;;;;;;;5024554;28;20624;-66
2021/12/09 16:11:08;;;;;;;;;;;;;;;;;;5024932;28;19960;-72
2021/12/09 16:13:33;;;;;;;;;;;;;;;;;;5024241;28;19956;-65
2021/12/09 16:16:06;;;;;;;;;;;;;;;;;;5023269;28;20313;-65
2021/12/09 16:18:38;;;;;;;;;;;;;;;;;;5024448;28;19921;-69
2021/12/09 16:21:06;;;;;;;;;;;;;;;;;;5023444;28;20013;-64
2021/12/09 16:23:32;;;;;;;;;;;;;;;;;;5024039;28;19966;-64
2021/12/09 16:25:57;;;;;;;;;;;;;;;;;;5017491;28;20336;-74
2021/12/09 16:28:22;;;;;;;;;;;;;;;;;;5023263;28;20628;-64
2021/12/09 16:30:48;;;;;;;;;;;;;;;;;;5039772;28;20701;-71
2021/12/09 16:33:13;;;;;;;;;;;;;;;;;;5025047;28;20273;-68
2021/12/09 16:35:38;;;;;;;;;;;;;;;;;;5037503;28;20393;-66
2021/12/09 16:38:04;;;;;;;;;;;;;;;;;;5023436;28;19925;-68
2021/12/09 16:40:29;;;;;;;;;;;;;;;;;;5023807;28;20304;-67
2021/12/09 16:42:54;;;;;;;;;;;;;;;;;;5023886;28;19935;-69
2021/12/09 16:45:19;;;;;;;;;;;;;;;;;;5023174;28;19913;-67
2021/12/09 16:47:46;;;;;;;;;;;;;;;;;;5023997;28;20014;-71
2021/12/09 16:50:11;;;;;;;;;;;;;;;;;;5024142;28;19917;-65
2021/12/09 16:52:36;;;;;;;;;;;;;;;;;;5037742;28;20280;-69
2021/12/09 16:55:07;;;;;;;;;;;;;;;;;;5024394;28;19913;-70
2021/12/09 16:57:43;;;;;;;;;;;;;;;;;;5023130;28;19921;-64
2021/12/09 17:00:08;;;;;;;;;;;;;;;;;;5022597;28;19971;-67
2021/12/09 17:02:33;;;;;;;;;;;;;;;;;;5022883;28;19968;-72
2021/12/09 17:04:59;;;;;;;;;;;;;;;;;;5022726;28;19947;-72
2021/12/09 17:07:24;;;;;;;;;;;;;;;;;;5024086;28;19921;-73
2021/12/09 17:09:49;;;;;;;;;;;;;;;;;;5023624;28;20409;-68
2021/12/09 17:12:14;;;;;;;;;;;;;;;;;;5021944;28;20401;-67
2021/12/09 17:14:39;;;;;;;;;;;;;;;;;;5011017;28;19917;-67
2021/12/09 17:17:05;;;;;;;;;;;;;;;;;;5023631;28;19921;-69
2021/12/09 17:19:30;;;;;;;;;;;;;;;;;;5023064;28;20027;-66
2021/12/09 17:21:55;;;;;;;;;;;;;;;;;;5023492;28;20502;-71
2021/12/09 17:24:21;;;;;;;;;;;;;;;;;;5033047;28;19951;-71
2021/12/09 17:26:47;;;;;;;;;;;;;;;;;;5022576;28;20278;-67
2021/12/09 17:29:12;;;;;;;;;;;;;;;;;;5018995;28;19924;-73
2021/12/09 17:31:41;;;;;;;;;;;;;;;;;;5022037;28;19976;-71
2021/12/09 17:34:07;;;;;;;;;;;;;;;;;;5020199;28;20277;-68